Time;durP1;ratioP1;P1;durP2;ratioP2;P2;SDS_P1;SDS_P2;PMS_P1;PMS_P2;Temp;Humidity;BMP_temperature;BMP_pressure;BME280_temperature;BME280_humidity;BME280_pressure;Samples;Min_cycle;Max_cycle;Signal;HPM_P1;HPM_P2
2023/05/26 00:01:03;;;;;;;12.13;7.18;;;;;;;15.43;100.00;98930.19;4485634;32;20168;-65
2023/05/26 00:03:38;;;;;;;13.30;7.00;;;;;;;15.46;100.00;98925.56;4485349;31;20127;-65
2023/05/26 00:06:10;;;;;;;14.15;8.15;;;;;;;15.43;100.00;98924.91;4485878;32;20124;-65
2023/05/26 00:08:38;;;;;;;16.42;7.53;;;;;;;15.42;100.00;98930.34;4485751;31;20085;-65
2023/05/26 00:11:06;;;;;;;9.02;6.75;;;;;;;15.42;100.00;98927.72;4486073;31;20092;-65
2023/05/26 00:13:33;;;;;;;16.23;7.62;;;;;;;15.40;100.00;98933.16;4474000;31;20462;-65
2023/05/26 00:16:01;;;;;;;12.50;7.28;;;;;;;15.38;100.00;98932.50;4478975;32;20107;-65
2023/05/26 00:18:28;;;;;;;13.05;7.57;;;;;;;15.34;100.00;98933.00;4485736;32;20123;-65
2023/05/26 00:20:55;;;;;;;11.63;7.05;;;;;;;15.33;100.00;98931.34;4485641;31;20105;-65
2023/05/26 00:23:23;;;;;;;11.95;7.43;;;;;;;15.33;100.00;98926.87;4485639;31;20466;-65
2023/05/26 00:25:50;;;;;;;13.13;7.53;;;;;;;15.30;100.00;98929.03;4485606;31;20084;-65
2023/05/26 00:28:18;;;;;;;12.43;7.55;;;;;;;15.27;100.00;98933.63;4485510;31;20104;-65
2023/05/26 00:30:45;;;;;;;11.48;7.75;;;;;;;15.29;100.00;98930.00;4485732;31;20104;-65
2023/05/26 00:33:12;;;;;;;16.10;8.13;;;;;;;15.25;100.00;98926.87;4471305;32;20445;-65
2023/05/26 00:35:40;;;;;;;15.55;7.87;;;;;;;15.20;100.00;98922.09;4485642;31;20469;-65
2023/05/26 00:38:07;;;;;;;11.43;7.35;;;;;;;15.16;100.00;98933.13;4485414;32;20084;-65
2023/05/26 00:40:35;;;;;;;13.77;7.68;;;;;;;15.18;100.00;98931.16;4485482;32;20171;-65
2023/05/26 00:43:02;;;;;;;13.93;8.20;;;;;;;15.26;100.00;98925.87;4485499;31;20104;-65
2023/05/26 00:45:29;;;;;;;14.48;8.38;;;;;;;15.27;100.00;98923.06;4485464;32;20084;-65
2023/05/26 00:47:57;;;;;;;17.75;7.97;;;;;;;15.23;100.00;98931.47;4485458;32;20111;-65
2023/05/26 00:50:24;;;;;;;13.48;8.35;;;;;;;15.22;100.00;98925.38;4485405;32;20088;-65
2023/05/26 00:52:51;;;;;;;15.60;8.55;;;;;;;15.23;100.00;98927.03;4485509;32;20119;-65
2023/05/26 00:55:20;;;;;;;17.65;8.25;;;;;;;15.23;100.00;98923.56;4484068;32;20160;-65
2023/05/26 00:57:47;;;;;;;14.85;8.25;;;;;;;15.17;100.00;98919.78;4485394;31;20156;-65
2023/05/26 01:00:16;;;;;;;14.80;8.18;;;;;;;15.18;100.00;98920.59;4485162;31;20514;-65
2023/05/26 01:02:44;;;;;;;12.93;7.87;;;;;;;15.11;100.00;98916.94;4485524;31;20148;-65
2023/05/26 01:05:15;;;;;;;15.38;8.00;;;;;;;15.11;100.00;98915.16;4484092;32;20176;-65
2023/05/26 01:07:43;;;;;;;19.75;8.10;;;;;;;15.01;100.00;98917.94;4484362;32;20394;-65
2023/05/26 01:10:11;;;;;;;12.57;8.35;;;;;;;15.07;100.00;98916.47;4484037;32;20108;-65
2023/05/26 01:12:38;;;;;;;13.70;7.95;;;;;;;15.04;100.00;98914.16;4479481;32;20491;-65
2023/05/26 01:15:15;;;;;;;15.73;8.40;;;;;;;15.00;100.00;98910.19;4472660;32;20245;-65
2023/05/26 01:18:06;;;;;;;12.20;7.90;;;;;;;15.00;100.00;98911.00;4485321;32;20076;-65
2023/05/26 01:20:40;;;;;;;16.25;8.63;;;;;;;14.97;100.00;98916.59;4485179;31;20115;-65
2023/05/26 01:23:26;;;;;;;;;;;;;;;14.97;100.00;98913.13;4485575;31;20497;-65
2023/05/26 01:26:06;;;;;;;14.30;8.02;;;;;;;14.93;100.00;98906.53;4485254;31;21143;-65
2023/05/26 01:28:35;;;;;;;14.13;8.27;;;;;;;14.93;100.00;98914.44;4485137;31;20092;-65
2023/05/26 01:31:02;;;;;;;13.05;7.95;;;;;;;14.88;100.00;98918.41;4485320;31;20097;-65
2023/05/26 01:33:29;;;;;;;12.82;8.45;;;;;;;14.90;100.00;98905.88;4483838;32;20104;-65
2023/05/26 01:35:56;;;;;;;12.35;7.95;;;;;;;14.89;100.00;98909.50;4485076;32;20108;-65
2023/05/26 01:38:24;;;;;;;13.57;7.95;;;;;;;14.92;100.00;98911.00;4485057;31;20088;-65
2023/05/26 01:41:08;;;;;;;13.80;8.23;;;;;;;14.92;100.00;98905.72;4485030;31;20100;-65
2023/05/26 01:43:47;;;;;;;14.52;8.35;;;;;;;14.88;100.00;98899.09;4483897;32;20092;-65
2023/05/26 01:46:25;;;;;;;11.73;8.02;;;;;;;14.90;100.00;98905.06;4485197;31;20122;-65
2023/05/26 01:48:56;;;;;;;16.85;9.45;;;;;;;14.84;100.00;98903.06;4483825;32;20203;-64
2023/05/26 01:51:23;;;;;;;15.65;8.73;;;;;;;14.87;100.00;98895.66;4484993;31;20111;-65
2023/05/26 01:53:55;;;;;;;13.88;8.73;;;;;;;14.87;100.00;98897.47;4483583;32;20183;-65
2023/05/26 01:56:25;;;;;;;14.60;8.40;;;;;;;14.86;100.00;98887.91;4483838;32;20104;-65
2023/05/26 01:58:52;;;;;;;14.77;8.85;;;;;;;14.82;100.00;98895.31;4484713;32;20110;-65
2023/05/26 02:01:25;;;;;;;13.70;8.20;;;;;;;14.83;100.00;98893.50;4483929;32;20097;-65
2023/05/26 02:03:52;;;;;;;14.55;8.30;;;;;;;14.84;100.00;98903.06;4484810;31;20093;-65
2023/05/26 02:06:21;;;;;;;18.37;8.95;;;;;;;14.83;100.00;98904.03;4485274;32;20101;-65
2023/05/26 02:08:50;;;;;;;12.65;8.35;;;;;;;14.83;100.00;98904.03;4485089;31;20234;-64
2023/05/26 02:11:18;;;;;;;16.95;8.90;;;;;;;14.84;100.00;98903.06;4484736;31;20073;-65
2023/05/26 02:13:45;;;;;;;14.85;8.90;;;;;;;14.80;100.00;98901.72;4471997;32;20192;-65
2023/05/26 02:16:13;;;;;;;13.30;8.48;;;;;;;14.79;100.00;98892.16;4479425;32;20525;-65
2023/05/26 02:18:41;;;;;;;14.70;9.15;;;;;;;14.77;100.00;98905.50;4484783;32;20088;-65
2023/05/26 02:21:08;;;;;;;15.05;8.75;;;;;;;14.75;100.00;98896.94;4484681;32;20126;-65
2023/05/26 02:23:36;;;;;;;14.95;9.15;;;;;;;14.77;100.00;98897.59;4484690;32;20159;-65
2023/05/26 02:26:05;;;;;;;13.45;8.63;;;;;;;14.76;100.00;98897.75;4482939;32;20164;-65
2023/05/26 02:28:33;;;;;;;14.45;8.23;;;;;;;14.76;100.00;98900.41;4484783;32;20466;-65
2023/05/26 02:31:00;;;;;;;16.55;8.95;;;;;;;14.71;100.00;98900.88;4484715;31;20101;-65
2023/05/26 02:33:27;;;;;;;12.80;8.55;;;;;;;14.68;100.00;98899.38;4484757;32;20088;-65
2023/05/26 02:35:55;;;;;;;15.68;8.45;;;;;;;14.62;100.00;98902.66;4484574;32;20092;-65
2023/05/26 02:38:22;;;;;;;17.05;8.90;;;;;;;14.61;100.00;98906.28;4484642;32;20179;-65
2023/05/26 02:40:50;;;;;;;15.45;8.20;;;;;;;14.61;100.00;98905.44;4484503;31;20089;-65
2023/05/26 02:43:17;;;;;;;14.32;8.50;;;;;;;14.58;100.00;98906.59;4484464;32;20165;-65
2023/05/26 02:45:45;;;;;;;12.23;8.43;;;;;;;14.59;100.00;98907.41;4484541;32;20742;-65
2023/05/26 02:48:13;;;;;;;15.18;8.55;;;;;;;14.55;100.00;98907.72;4484483;32;20114;-65
2023/05/26 02:50:40;;;;;;;16.92;8.95;;;;;;;14.50;100.00;98907.38;4484307;32;20230;-65
2023/05/26 02:53:07;;;;;;;16.70;8.77;;;;;;;14.48;100.00;98903.25;4483049;32;20166;-65
2023/05/26 02:55:34;;;;;;;15.15;8.85;;;;;;;14.47;100.00;98905.03;4484151;31;20450;-65
2023/05/26 02:58:02;;;;;;;15.95;9.90;;;;;;;14.45;100.00;98912.28;4484210;32;20091;-65
2023/05/26 03:00:29;;;;;;;14.95;9.65;;;;;;;14.41;100.00;98907.50;4483936;32;20159;-65
2023/05/26 03:02:56;;;;;;;15.90;9.20;;;;;;;14.39;100.00;98910.28;4484120;32;20151;-65
2023/05/26 03:05:24;;;;;;;18.37;9.63;;;;;;;14.34;100.00;98908.12;4484218;32;20165;-65
2023/05/26 03:07:51;;;;;;;15.98;10.15;;;;;;;14.36;100.00;98907.97;4483945;32;20092;-65
2023/05/26 03:10:20;;;;;;;15.43;9.20;;;;;;;14.34;100.00;98916.03;4484371;31;20446;-65
2023/05/26 03:12:48;;;;;;;23.17;9.50;;;;;;;14.32;100.00;98917.16;4469488;32;20089;-64
2023/05/26 03:15:15;;;;;;;18.08;9.77;;;;;;;14.31;100.00;98918.97;4461298;32;20100;-65
2023/05/26 03:17:42;;;;;;;16.33;9.77;;;;;;;14.29;100.00;98920.97;4484225;32;20370;-65
2023/05/26 03:20:11;;;;;;;19.92;10.10;;;;;;;14.31;100.00;98918.16;4484014;32;20084;-64
2023/05/26 03:22:38;;;;;;;18.77;10.77;;;;;;;14.31;100.00;98918.97;4483893;31;20444;-65
2023/05/26 03:25:18;;;;;;;15.48;9.93;;;;;;;14.30;100.00;98917.31;4483873;31;20144;-65
2023/05/26 03:27:46;;;;;;;17.67;9.98;;;;;;;14.38;100.00;98921.81;4484152;31;20156;-65
2023/05/26 03:30:13;;;;;;;19.30;10.27;;;;;;;14.44;100.00;98925.63;4483982;31;20124;-65
2023/05/26 03:32:41;;;;;;;16.30;10.05;;;;;;;14.52;100.00;98923.03;4483829;31;20092;-65
2023/05/26 03:35:09;;;;;;;16.87;10.27;;;;;;;14.55;100.00;98928.00;4483707;31;20101;-65
2023/05/26 03:37:36;;;;;;;18.65;10.60;;;;;;;14.59;100.00;98924.03;4484719;32;20477;-65
2023/05/26 03:40:05;;;;;;;16.75;10.35;;;;;;;14.58;100.00;98927.69;4485985;32;20449;-65
2023/05/26 03:42:33;;;;;;;21.33;10.43;;;;;;;14.61;100.00;98929.19;4486237;31;20096;-65
2023/05/26 03:45:00;;;;;;;19.85;11.18;;;;;;;14.64;100.00;98927.06;4485049;32;20096;-65
2023/05/26 03:47:28;;;;;;;19.27;10.25;;;;;;;14.70;100.00;98926.44;4486143;32;20121;-65
2023/05/26 03:49:55;;;;;;;18.67;10.40;;;;;;;14.77;100.00;98918.69;4484726;32;20164;-65
2023/05/26 03:52:25;;;;;;;18.87;11.00;;;;;;;14.85;100.00;98926.66;4485976;31;20395;-65
2023/05/26 03:54:52;;;;;;;19.15;10.70;;;;;;;14.89;100.00;98924.50;4484592;32;20088;-65
2023/05/26 03:57:20;;;;;;;16.30;10.50;;;;;;;14.92;100.00;98918.91;4471498;32;20182;-65
2023/05/26 03:59:47;;;;;;;15.90;9.65;;;;;;;14.99;100.00;98919.91;4485902;32;20096;-65
2023/05/26 04:02:14;;;;;;;15.77;9.90;;;;;;;15.06;100.00;98926.19;4485730;31;20122;-65
2023/05/26 04:04:42;;;;;;;17.85;10.13;;;;;;;15.08;100.00;98924.22;4485984;31;20080;-65
2023/05/26 04:07:11;;;;;;;17.87;10.88;;;;;;;15.11;100.00;98927.50;4485595;32;20114;-65
2023/05/26 04:09:39;;;;;;;21.67;10.52;;;;;;;15.12;100.00;98926.53;4472550;32;20101;-65
2023/05/26 04:12:07;;;;;;;17.62;10.77;;;;;;;15.18;100.00;98933.78;4465382;32;20459;-65
2023/05/26 04:14:35;;;;;;;19.15;11.07;;;;;;;15.17;100.00;98938.25;4470000;32;20092;-65
2023/05/26 04:17:02;;;;;;;22.90;11.23;;;;;;;15.21;100.00;98939.56;4453004;32;20103;-65
2023/05/26 04:19:29;;;;;;;19.27;10.20;;;;;;;15.24;100.00;98931.31;4454393;32;20145;-65
2023/05/26 04:21:57;;;;;;;20.85;10.63;;;;;;;15.39;100.00;98936.78;4459259;32;20093;-65
2023/05/26 04:24:26;;;;;;;15.55;9.68;;;;;;;15.42;100.00;98940.91;4470109;32;20106;-65
2023/05/26 04:26:54;;;;;;;19.17;10.88;;;;;;;15.53;100.00;98942.41;4470012;32;20088;-65
2023/05/26 04:29:22;;;;;;;16.62;10.15;;;;;;;15.61;100.00;98935.31;4470215;32;20089;-65
2023/05/26 04:31:51;;;;;;;23.42;10.35;;;;;;;15.78;100.00;98941.44;4467379;32;20100;-65
2023/05/26 04:34:21;;;;;;;16.58;9.73;;;;;;;15.87;100.00;98944.09;4467884;32;20149;-65
2023/05/26 04:36:49;;;;;;;16.25;9.27;;;;;;;15.95;100.00;98930.84;4469752;32;20088;-65
2023/05/26 04:39:16;;;;;;;17.00;10.25;;;;;;;16.11;100.00;98946.69;4469874;32;20073;-65
2023/05/26 04:41:46;;;;;;;17.45;10.63;;;;;;;16.11;100.00;98946.69;4469692;32;20092;-65
2023/05/26 04:44:13;;;;;;;19.85;10.57;;;;;;;16.18;100.00;98952.09;4468966;32;20111;-65
2023/05/26 04:46:40;;;;;;;17.90;9.60;;;;;;;16.32;100.00;98947.94;4469774;32;20143;-65
2023/05/26 04:49:08;;;;;;;17.85;9.85;;;;;;;16.33;100.00;98946.94;4468277;32;20100;-65
2023/05/26 04:51:36;;;;;;;17.60;10.13;;;;;;;16.40;100.00;98945.28;4469067;32;20131;-65
2023/05/26 04:54:04;;;;;;;18.02;8.98;;;;;;;16.59;100.00;98943.22;4468215;32;20437;-65
2023/05/26 04:56:31;;;;;;;16.67;9.30;;;;;;;16.67;100.00;98951.16;4469218;32;20102;-65
2023/05/26 04:58:59;;;;;;;17.25;8.98;;;;;;;16.76;100.00;98947.47;4469828;32;20469;-65
2023/05/26 05:01:26;;;;;;;17.08;9.77;;;;;;;16.85;100.00;98950.88;4470438;32;20100;-65
2023/05/26 05:03:54;;;;;;;23.10;9.63;;;;;;;17.02;100.00;98949.03;4477431;32;20450;-65
2023/05/26 05:06:22;;;;;;;15.07;8.07;;;;;;;17.13;100.00;98951.25;4467855;32;20127;-65
2023/05/26 05:08:49;;;;;;;15.90;8.90;;;;;;;17.36;100.00;98955.75;4476266;32;20137;-66
2023/05/26 05:11:16;;;;;;;15.95;10.43;;;;;;;17.51;100.00;98961.91;4474923;31;20575;-66
2023/05/26 05:13:44;;;;;;;18.65;9.95;;;;;;;17.44;100.00;98968.94;4467332;32;20187;-66
2023/05/26 05:16:11;;;;;;;22.58;10.25;;;;;;;17.44;100.00;98958.34;4470399;32;20092;-66
2023/05/26 05:18:39;;;;;;;19.48;10.82;;;;;;;17.33;100.00;98967.50;4469382;32;20144;-65
2023/05/26 05:21:06;;;;;;;18.98;11.23;;;;;;;17.37;100.00;98966.16;4468751;32;20477;-65
2023/05/26 05:23:34;;;;;;;17.30;10.85;;;;;;;17.42;100.00;98964.81;4469026;32;20126;-65
2023/05/26 05:26:02;;;;;;;20.52;11.38;;;;;;;17.41;100.00;98966.66;4466605;32;20453;-65
2023/05/26 05:28:29;;;;;;;19.98;11.10;;;;;;;17.27;100.00;98962.09;4465507;32;20183;-65
2023/05/26 05:30:57;;;;;;;18.23;10.80;;;;;;;17.24;100.00;98963.25;4468605;32;20127;-65
2023/05/26 05:33:27;;;;;;;16.48;10.60;;;;;;;17.34;100.00;98960.41;4467677;32;20290;-65
2023/05/26 05:35:55;;;;;;;17.80;10.00;;;;;;;17.41;100.00;98971.94;4463529;32;20477;-66
2023/05/26 05:38:22;;;;;;;18.85;10.77;;;;;;;17.51;100.00;98969.84;4469547;32;20126;-66
2023/05/26 05:40:50;;;;;;;15.68;9.98;;;;;;;17.76;100.00;98969.69;4465861;32;20120;-66
2023/05/26 05:43:18;;;;;;;18.33;10.63;;;;;;;17.82;100.00;98970.78;4466277;32;20149;-66
2023/05/26 05:45:45;;;;;;;14.70;9.27;;;;;;;17.93;100.00;98965.09;4468194;32;20119;-65
2023/05/26 05:48:14;;;;;;;17.12;9.35;;;;;;;18.11;100.00;98964.75;4461662;32;20113;-66
2023/05/26 05:50:43;;;;;;;23.00;8.02;;;;;;;18.42;100.00;98966.41;4461399;32;20131;-66
2023/05/26 05:53:13;;;;;;;15.25;7.50;;;;;;;18.47;100.00;98964.06;4468581;32;20169;-66
2023/05/26 05:55:41;;;;;;;15.70;7.53;;;;;;;18.55;100.00;98979.87;4461556;32;20132;-67
2023/05/26 05:58:08;;;;;;;11.70;7.60;;;;;;;18.74;100.00;98978.50;4463188;32;20175;-67
2023/05/26 06:00:37;;;;;;;15.48;8.68;;;;;;;19.01;100.00;98978.03;4459243;32;21144;-66
2023/05/26 06:03:05;;;;;;;14.27;7.80;;;;;;;19.07;100.00;98982.59;4457519;32;20127;-66
2023/05/26 06:05:33;;;;;;;12.77;6.37;;;;;;;19.09;100.00;98988.50;4464364;32;20088;-66
2023/05/26 06:08:00;;;;;;;13.48;6.85;;;;;;;19.05;100.00;98985.41;4463671;32;20181;-66
2023/05/26 06:10:28;;;;;;;15.50;6.55;;;;;;;19.20;100.00;98995.16;4460532;32;20128;-67
2023/05/26 06:12:55;;;;;;;12.13;7.82;;;;;;;19.39;100.00;98993.75;4462552;32;20552;-66
2023/05/26 06:15:22;;;;;;;10.70;6.95;;;;;;;19.53;100.00;99000.00;4462791;32;20698;-67
2023/05/26 06:17:50;;;;;;;14.43;7.35;;;;;;;19.62;100.00;99004.19;4463858;32;20127;-67
2023/05/26 06:20:17;;;;;;;11.02;6.97;;;;;;;19.56;100.00;99004.94;4463273;32;20108;-67
2023/05/26 06:22:45;;;;;;;12.90;7.07;;;;;;;19.53;100.00;99005.34;4462618;32;20089;-67
2023/05/26 06:25:13;;;;;;;20.02;8.00;;;;;;;19.74;100.00;99007.97;4461533;32;20093;-66
2023/05/26 06:27:41;;;;;;;14.87;7.65;;;;;;;19.91;100.00;99008.59;4462196;32;20169;-66
2023/05/26 06:30:10;;;;;;;12.57;7.87;;;;;;;19.80;100.00;99012.59;4461968;32;20469;-65
2023/05/26 06:32:37;;;;;;;17.12;8.73;;;;;;;19.85;100.00;99012.84;4460324;32;20104;-67
2023/05/26 06:35:06;;;;;;;11.85;7.80;;;;;;;20.07;100.00;99012.78;4466737;32;20092;-67
2023/05/26 06:37:33;;;;;;;21.92;8.45;;;;;;;20.25;100.00;99017.66;4459405;32;20121;-67
2023/05/26 06:40:01;;;;;;;17.70;8.00;;;;;;;20.24;100.00;99012.50;4465066;32;20161;-67
2023/05/26 06:42:29;;;;;;;12.50;8.23;;;;;;;20.35;100.00;99014.66;4459904;32;20110;-67
2023/05/26 06:44:56;;;;;;;15.00;8.13;;;;;;;20.37;100.00;99018.75;4465442;32;20092;-68
2023/05/26 06:47:25;;;;;;;84.68;11.35;;;;;;;20.53;100.00;99016.78;4460946;32;20393;-67
2023/05/26 06:49:56;;;;;;;14.50;7.97;;;;;;;20.53;100.00;99007.00;4458874;32;20097;-68
2023/05/26 06:52:24;;;;;;;24.12;7.47;;;;;;;20.86;100.00;99021.50;4453425;32;20089;-67
2023/05/26 06:54:53;;;;;;;15.77;9.85;;;;;;;20.90;100.00;99025.44;4460735;32;20708;-68
2023/05/26 06:57:21;;;;;;;15.43;9.32;;;;;;;21.02;100.00;99015.03;4461512;32;20116;-68
2023/05/26 06:59:48;;;;;;;15.93;9.85;;;;;;;20.99;100.00;99031.41;4461474;32;20451;-66
2023/05/26 07:02:16;;;;;;;12.60;6.15;;;;;;;21.04;100.00;99024.47;4463391;32;20206;-68
2023/05/26 07:04:44;;;;;;;11.32;6.90;;;;;;;20.85;93.43;99034.00;4461459;32;20104;-67
2023/05/26 07:07:11;;;;;;;20.88;10.63;;;;;;;21.11;94.71;99031.69;4461784;32;20137;-67
2023/05/26 07:09:38;;;;;;;18.83;11.40;;;;;;;21.22;100.00;99031.09;4460652;32;20101;-64
2023/05/26 07:12:07;;;;;;;15.70;9.60;;;;;;;21.01;100.00;99024.84;4462744;32;20206;-67
2023/05/26 07:14:35;;;;;;;18.05;10.43;;;;;;;20.67;100.00;99023.88;4464118;32;20516;-65
2023/05/26 07:17:05;;;;;;;17.08;10.35;;;;;;;20.35;100.00;99031.44;4457060;32;20084;-65
2023/05/26 07:19:32;;;;;;;17.17;9.68;;;;;;;20.43;100.00;99040.28;4462686;32;20450;-66
2023/05/26 07:22:00;;;;;;;14.70;8.45;;;;;;;20.30;100.00;99033.03;4462203;32;20108;-67
2023/05/26 07:24:29;;;;;;;17.67;10.15;;;;;;;20.45;100.00;99032.94;4454566;32;20100;-67
2023/05/26 07:26:58;;;;;;;20.27;8.05;;;;;;;20.51;100.00;99034.81;4461531;32;20170;-66
2023/05/26 07:29:26;;;;;;;13.90;8.35;;;;;;;20.53;100.00;99024.78;4457799;32;20105;-64
2023/05/26 07:31:54;;;;;;;11.70;7.85;;;;;;;20.67;100.00;99031.88;4462967;32;20145;-67
2023/05/26 07:34:22;;;;;;;13.35;7.43;;;;;;;20.92;100.00;99034.03;4466448;32;20126;-66
2023/05/26 07:36:49;;;;;;;13.68;7.97;;;;;;;21.15;98.12;99033.75;4463429;32;20115;-65
2023/05/26 07:39:17;;;;;;;11.18;7.30;;;;;;;20.96;92.21;99029.97;4462976;32;20139;-66
2023/05/26 07:41:46;;;;;;;11.40;7.47;;;;;;;20.92;90.83;99031.38;4465411;32;20109;-67
2023/05/26 07:44:13;;;;;;;15.50;7.70;;;;;;;21.04;92.98;99029.78;4463236;32;20166;-66
2023/05/26 07:46:40;;;;;;;13.35;8.20;;;;;;;21.35;99.02;99030.31;4462275;32;20124;-65
2023/05/26 07:49:09;;;;;;;16.20;8.15;;;;;;;21.44;94.36;99039.78;4464764;32;20127;-66
2023/05/26 07:51:37;;;;;;;15.13;7.80;;;;;;;21.22;91.79;99031.91;4461848;32;21773;-66
2023/05/26 07:54:05;;;;;;;13.20;7.07;;;;;;;21.45;95.57;99031.59;4461333;32;20144;-65
2023/05/26 07:56:32;;;;;;;15.18;8.25;;;;;;;21.34;93.20;99032.16;4456866;32;20109;-64
2023/05/26 07:58:59;;;;;;;14.18;8.50;;;;;;;21.24;91.37;99037.88;4457135;32;20128;-66
2023/05/26 08:01:27;;;;;;;19.77;8.52;;;;;;;21.43;92.73;99033.59;4462497;32;20167;-66
2023/05/26 08:03:54;;;;;;;13.70;7.37;;;;;;;21.42;93.67;99032.00;4462076;32;20114;-66
2023/05/26 08:06:21;;;;;;;13.20;8.65;;;;;;;21.38;91.61;99029.94;4460937;32;20097;-66
2023/05/26 08:08:53;;;;;;;12.05;7.90;;;;;;;21.25;92.00;99033.34;4461490;32;20511;-66
2023/05/26 08:11:22;;;;;;;13.95;7.62;;;;;;;21.45;91.57;99036.91;4463785;32;20144;-65
2023/05/26 08:13:50;;;;;;;15.63;7.65;;;;;;;21.50;87.97;99035.50;4450800;32;20152;-65
2023/05/26 08:16:17;;;;;;;13.40;7.32;;;;;;;21.66;88.89;99045.78;4461098;32;20123;-65
2023/05/26 08:18:45;;;;;;;10.23;6.97;;;;;;;21.90;84.68;99048.91;4463569;32;20146;-65
2023/05/26 08:21:13;;;;;;;12.13;7.68;;;;;;;22.02;84.14;99049.94;4458366;32;20115;-65
2023/05/26 08:23:41;;;;;;;12.18;7.62;;;;;;;22.03;85.69;99040.91;4454269;32;20143;-65
2023/05/26 08:26:09;;;;;;;16.10;7.75;;;;;;;22.10;86.02;99043.56;4460798;32;20104;-65
2023/05/26 08:28:36;;;;;;;14.70;7.45;;;;;;;22.27;83.64;99046.66;4464946;32;20093;-66
2023/05/26 08:31:04;;;;;;;14.75;7.78;;;;;;;22.50;81.25;99044.41;4462961;32;20158;-65
2023/05/26 08:33:32;;;;;;;14.85;6.87;;;;;;;22.83;80.77;99040.84;4461629;32;20168;-65
2023/05/26 08:36:00;;;;;;;18.48;7.50;;;;;;;22.70;71.59;99045.41;4450114;32;20119;-66
2023/05/26 08:38:29;;;;;;;9.55;6.35;;;;;;;22.64;72.84;99047.87;4453619;32;20147;-65
2023/05/26 08:41:00;;;;;;;8.85;6.00;;;;;;;22.48;63.28;99041.13;4463905;32;20115;-65
2023/05/26 08:43:41;;;;;;;11.15;6.20;;;;;;;22.72;65.46;99046.81;4453186;32;20158;-68
2023/05/26 08:46:16;;;;;;;13.98;6.32;;;;;;;22.83;62.80;99048.84;4454514;32;20108;-67
2023/05/26 08:48:44;;;;;;;9.50;5.90;;;;;;;22.94;63.08;99046.56;4464018;32;20092;-67
2023/05/26 08:51:12;;;;;;;13.98;6.35;;;;;;;23.03;62.35;99056.00;4464516;32;20104;-66
2023/05/26 08:53:40;;;;;;;14.95;6.65;;;;;;;23.15;60.68;99038.28;4456921;32;20137;-66
2023/05/26 08:56:09;;;;;;;15.23;6.45;;;;;;;23.42;66.55;99040.81;4461977;32;20093;-66
2023/05/26 08:58:38;;;;;;;8.88;6.15;;;;;;;23.75;71.03;99031.78;4461118;32;20155;-66
2023/05/26 09:01:06;;;;;;;10.35;7.00;;;;;;;23.46;67.00;99046.56;4459412;32;20729;-65
2023/05/26 09:03:33;;;;;;;11.30;7.12;;;;;;;23.28;62.02;99034.72;4460483;32;20484;-65
2023/05/26 09:06:01;;;;;;;15.38;7.32;;;;;;;23.52;63.34;99038.50;4461988;32;20092;-64
2023/05/26 09:08:29;;;;;;;10.85;7.18;;;;;;;23.65;62.61;99036.78;4459270;32;20116;-63
2023/05/26 09:10:57;;;;;;;12.85;6.57;;;;;;;23.63;64.92;99036.19;4447183;32;20600;-65
2023/05/26 09:13:24;;;;;;;10.70;7.43;;;;;;;23.46;64.58;99031.34;4455614;32;20089;-65
2023/05/26 09:15:54;;;;;;;13.02;7.55;;;;;;;23.08;70.05;99031.31;4461162;32;20084;-65
2023/05/26 09:18:40;;;;;;;11.68;7.78;;;;;;;22.96;70.00;99031.94;4460627;32;20421;-65
2023/05/26 09:21:08;;;;;;;17.90;8.37;;;;;;;23.00;70.18;99032.37;4462633;32;20116;-64
2023/05/26 09:23:35;;;;;;;13.10;8.00;;;;;;;23.11;72.45;99044.28;4459188;32;20113;-64
2023/05/26 09:26:05;;;;;;;14.82;8.05;;;;;;;23.10;71.85;99030.06;4462261;32;20469;-65
2023/05/26 09:28:33;;;;;;;14.18;7.60;;;;;;;23.41;73.04;99035.69;4464878;32;20100;-64
2023/05/26 09:31:00;;;;;;;12.48;7.55;;;;;;;23.67;69.17;99037.41;4460020;32;20383;-64
2023/05/26 09:33:27;;;;;;;12.95;7.53;;;;;;;23.80;65.65;99034.63;4454554;32;20113;-65
2023/05/26 09:35:55;;;;;;;14.05;8.15;;;;;;;23.85;67.60;99032.16;4462132;32;20107;-65
2023/05/26 09:38:22;;;;;;;15.50;7.85;;;;;;;23.78;68.57;99033.19;4458770;32;20113;-65
2023/05/26 09:40:49;;;;;;;11.65;8.35;;;;;;;23.49;70.02;99025.56;4462132;32;20139;-65
2023/05/26 09:43:20;;;;;;;10.98;7.93;;;;;;;23.41;70.68;99024.97;4465685;32;20175;-66
2023/05/26 09:45:47;;;;;;;14.57;8.15;;;;;;;23.40;67.29;99029.53;4465401;32;20100;-65
2023/05/26 09:48:14;;;;;;;15.80;8.07;;;;;;;23.39;66.98;99033.22;4461803;32;20145;-66
2023/05/26 09:50:42;;;;;;;13.45;8.13;;;;;;;23.81;67.11;99032.78;4462070;32;20122;-65
2023/05/26 09:53:10;;;;;;;11.70;8.13;;;;;;;24.40;65.26;99030.66;4462405;32;20088;-65
2023/05/26 09:55:39;;;;;;;16.12;7.62;;;;;;;24.21;64.44;99027.94;4459344;32;20120;-65
2023/05/26 09:58:08;;;;;;;13.70;8.45;;;;;;;24.11;65.60;99024.13;4463176;32;20827;-65
2023/05/26 10:00:43;;;;;;;12.65;7.95;;;;;;;24.00;65.33;99025.66;4453355;32;212108;-66
2023/05/26 10:03:14;;;;;;;30.35;9.45;;;;;;;24.39;67.71;99026.34;4459863;32;20109;-64
2023/05/26 10:05:46;;;;;;;13.35;8.75;;;;;;;24.56;64.84;99024.72;4461095;32;20139;-65
2023/05/26 10:08:18;;;;;;;16.85;9.10;;;;;;;24.38;70.22;99030.06;4458812;32;20126;-66
2023/05/26 10:10:46;;;;;;;14.68;7.80;;;;;;;24.42;71.81;99026.72;4462317;32;20172;-66
2023/05/26 10:13:15;;;;;;;16.55;9.02;;;;;;;24.35;73.46;99019.81;4460370;32;20497;-65
2023/05/26 10:15:44;;;;;;;14.77;8.77;;;;;;;24.10;70.47;99036.69;4465482;32;20089;-66
2023/05/26 10:18:11;;;;;;;16.90;9.13;;;;;;;24.06;70.74;99027.47;4460482;32;20135;-65
2023/05/26 10:20:39;;;;;;;13.55;8.68;;;;;;;24.34;75.19;99023.50;4460303;32;20095;-66
2023/05/26 10:23:10;;;;;;;12.50;8.43;;;;;;;24.63;74.06;99024.69;4460616;32;20120;-66
2023/05/26 10:25:43;;;;;;;12.77;8.45;;;;;;;24.80;69.92;99017.69;4456777;32;20156;-64
2023/05/26 10:28:11;;;;;;;;;;;;;;;24.78;72.83;99024.31;4461374;32;20772;-65
2023/05/26 10:30:41;;;;;;;11.68;8.35;;;;;;;25.00;67.74;99019.31;4456572;32;20004;-65
2023/05/26 10:33:14;;;;;;;11.88;8.20;;;;;;;24.77;70.43;99028.06;4461404;32;20135;-65
2023/05/26 10:35:55;;;;;;;14.40;9.05;;;;;;;24.64;68.25;99025.50;4461527;32;20084;-65
2023/05/26 10:38:28;;;;;;;13.90;8.48;;;;;;;24.03;70.71;99023.38;4460482;32;20108;-64
2023/05/26 10:40:56;;;;;;;9.65;7.30;;;;;;;24.01;73.72;99021.94;4460957;32;20135;-65
2023/05/26 10:43:25;;;;;;;15.40;8.25;;;;;;;24.40;74.38;99018.06;4460782;32;20089;-65
2023/05/26 10:45:57;;;;;;;12.20;8.48;;;;;;;24.50;72.71;99014.91;4464077;32;20176;-65
2023/05/26 10:48:35;;;;;;;13.02;8.50;;;;;;;24.49;70.22;99015.13;4467342;32;20096;-65
2023/05/26 10:51:02;;;;;;;15.50;8.38;;;;;;;24.53;69.02;99014.47;4456506;32;20097;-65
2023/05/26 10:53:34;;;;;;;11.68;7.68;;;;;;;24.42;71.18;99009.81;4455939;32;20096;-65
2023/05/26 10:56:04;;;;;;;11.60;7.75;;;;;;;24.33;68.72;99009.31;4463882;32;20084;-66
2023/05/26 10:58:33;;;;;;;12.70;8.38;;;;;;;24.50;67.92;99009.53;4468586;32;20207;-65
2023/05/26 11:01:16;;;;;;;12.57;8.48;;;;;;;24.73;66.36;99018.81;4463899;32;20153;-65
2023/05/26 11:03:46;;;;;;;10.07;7.22;;;;;;;25.13;64.70;99004.91;4467290;32;20173;-65
2023/05/26 11:06:16;;;;;;;17.10;8.57;;;;;;;24.86;66.59;98999.91;4453803;32;20173;-66
2023/05/26 11:08:47;;;;;;;10.57;7.47;;;;;;;24.63;63.56;99005.91;4466161;32;20092;-66
2023/05/26 11:11:29;;;;;;;11.88;8.00;;;;;;;25.11;64.95;98999.78;4469821;32;20359;-65
2023/05/26 11:14:04;;;;;;;10.43;7.75;;;;;;;25.06;65.04;99005.00;4459594;32;20149;-66
2023/05/26 11:16:36;;;;;;;14.45;8.00;;;;;;;25.08;66.13;98999.44;4464017;32;20100;-65
2023/05/26 11:19:05;;;;;;;12.40;7.55;;;;;;;24.98;68.43;99000.78;4468144;32;20081;-65
2023/05/26 11:21:35;;;;;;;12.90;8.13;;;;;;;24.95;68.12;98992.34;4470110;32;20146;-65
2023/05/26 11:24:03;;;;;;;12.88;7.97;;;;;;;24.85;70.16;98995.59;4467590;32;20084;-65
2023/05/26 11:26:31;;;;;;;13.77;8.40;;;;;;;24.75;70.79;98995.28;4463009;32;20097;-65